Time;durP1;ratioP1;P1;durP2;ratioP2;P2;SDS_P1;SDS_P2;PMS_P1;PMS_P2;Temp;Humidity;BMP_temperature;BMP_pressure;BME280_temperature;BME280_humidity;BME280_pressure;Samples;Min_cycle;Max_cycle;Signal;HPM_P1;HPM_P2
2022/04/30 00:02:06;;;;;;;;;55.50;44.50;;;;;;;;5057553;28;45439;-78
2022/04/30 00:04:31;;;;;;;;;51.25;38.75;;;;;;;;5055369;28;46065;-79
2022/04/30 00:06:56;;;;;;;;;40.00;34.25;;;;;;;;5057455;28;46152;-79
2022/04/30 00:09:22;;;;;;;;;30.50;24.00;;;;;;;;5057900;28;45176;-79
2022/04/30 00:11:47;;;;;;;;;32.25;27.00;;;;;;;;5054057;28;45221;-78
2022/04/30 00:14:12;;;;;;;;;29.25;26.00;;;;;;;;5058754;28;45263;-79
2022/04/30 00:16:38;;;;;;;;;28.50;27.25;;;;;;;;5053517;28;45554;-79
2022/04/30 00:19:03;;;;;;;;;49.25;37.75;;;;;;;;5058126;28;45348;-79
2022/04/30 00:21:28;;;;;;;;;51.00;37.00;;;;;;;;5052332;28;45268;-79
2022/04/30 00:23:55;;;;;;;;;56.25;45.25;;;;;;;;5057603;28;47222;-78
2022/04/30 00:26:20;;;;;;;;;77.00;59.50;;;;;;;;5052146;28;45312;-78
2022/04/30 00:28:46;;;;;;;;;98.67;84.00;;;;;;;;5058816;28;45307;-78
2022/04/30 00:31:11;;;;;;;;;93.67;79.67;;;;;;;;5052386;28;45319;-79
2022/04/30 00:33:36;;;;;;;;;70.50;52.75;;;;;;;;5058506;28;45351;-78
2022/04/30 00:36:02;;;;;;;;;45.50;37.50;;;;;;;;5051764;28;46095;-78
2022/04/30 00:38:27;;;;;;;;;35.00;33.50;;;;;;;;5057371;28;45891;-78
2022/04/30 00:40:52;;;;;;;;;35.25;30.50;;;;;;;;5045554;28;45490;-78
2022/04/30 00:43:17;;;;;;;;;33.25;33.00;;;;;;;;5065843;28;46128;-78
2022/04/30 00:45:47;;;;;;;;;32.75;28.00;;;;;;;;5051885;28;47216;-79
2022/04/30 00:48:12;;;;;;;;;28.25;25.00;;;;;;;;5054495;28;45292;-79
2022/04/30 00:50:38;;;;;;;;;35.75;33.25;;;;;;;;5054378;28;45435;-79
2022/04/30 00:53:05;;;;;;;;;34.50;28.75;;;;;;;;5058706;28;45307;-78
2022/04/30 00:55:31;;;;;;;;;40.00;33.25;;;;;;;;5052560;28;47256;-78
2022/04/30 00:57:58;;;;;;;;;47.25;35.00;;;;;;;;5058611;28;45542;-78
2022/04/30 01:00:26;;;;;;;;;36.75;33.25;;;;;;;;5053983;28;45435;-77
2022/04/30 01:02:51;;;;;;;;;39.25;31.25;;;;;;;;5070420;28;47014;-77
2022/04/30 01:05:17;;;;;;;;;38.25;32.75;;;;;;;;5054433;28;45265;-79
2022/04/30 01:07:42;;;;;;;;;35.25;32.25;;;;;;;;5050826;28;45292;-78
2022/04/30 01:10:08;;;;;;;;;33.00;27.75;;;;;;;;5052447;28;45418;-78
2022/04/30 01:12:34;;;;;;;;;38.00;33.75;;;;;;;;5057234;28;45341;-78
2022/04/30 01:15:00;;;;;;;;;42.75;35.75;;;;;;;;5054067;28;45379;-79
2022/04/30 01:17:26;;;;;;;;;30.50;29.25;;;;;;;;5056393;28;45453;-79
2022/04/30 01:19:51;;;;;;;;;35.25;28.75;;;;;;;;5051851;28;45844;-78
2022/04/30 01:22:23;;;;;;;;;44.75;33.00;;;;;;;;5053410;28;47377;-78
2022/04/30 01:24:48;;;;;;;;;42.50;33.00;;;;;;;;5055818;28;45363;-77
2022/04/30 01:27:14;;;;;;;;;33.50;28.50;;;;;;;;5055035;28;45287;-78
2022/04/30 01:29:39;;;;;;;;;36.75;32.75;;;;;;;;5060003;28;45353;-78
2022/04/30 01:37:36;;;;;;;;;39.50;29.50;;;;;;;;5060272;28;45598;-79
2022/04/30 01:40:11;;;;;;;;;46.75;33.00;;;;;;;;5057184;28;45320;-78
2022/04/30 01:42:36;;;;;;;;;36.50;33.25;;;;;;;;5072296;28;46207;-78
2022/04/30 01:45:04;;;;;;;;;43.50;30.75;;;;;;;;5054429;28;47185;-78
2022/04/30 01:47:30;;;;;;;;;31.00;26.75;;;;;;;;5057951;28;45394;-78
2022/04/30 01:49:55;;;;;;;;;40.75;33.25;;;;;;;;5057644;28;45310;-78
2022/04/30 01:52:20;;;;;;;;;37.00;34.25;;;;;;;;5059962;28;45295;-77
2022/04/30 01:54:45;;;;;;;;;38.25;32.25;;;;;;;;5057790;28;48322;-78
2022/04/30 01:57:12;;;;;;;;;35.00;33.50;;;;;;;;5067572;28;45393;-78
2022/04/30 01:59:38;;;;;;;;;38.50;28.50;;;;;;;;5060226;28;45405;-77
2022/04/30 02:02:04;;;;;;;;;37.75;30.75;;;;;;;;5059819;28;46065;-78
2022/04/30 02:04:30;;;;;;;;;46.50;38.75;;;;;;;;5058838;28;45366;-78
2022/04/30 02:06:59;;;;;;;;;44.75;36.25;;;;;;;;5048768;28;45265;-78
2022/04/30 02:09:27;;;;;;;;;39.75;34.00;;;;;;;;5058909;28;45477;-78
2022/04/30 02:11:53;;;;;;;;;42.75;35.50;;;;;;;;5050557;28;45299;-78
2022/04/30 02:14:18;;;;;;;;;36.50;31.25;;;;;;;;5060306;28;45545;-77
2022/04/30 02:16:45;;;;;;;;;43.50;35.75;;;;;;;;5053110;28;45439;-77
2022/04/30 02:19:10;;;;;;;;;34.75;32.75;;;;;;;;5060363;28;45319;-77
2022/04/30 02:21:35;;;;;;;;;38.25;30.50;;;;;;;;5053442;28;45049;-79
2022/04/30 02:24:02;;;;;;;;;48.75;39.25;;;;;;;;5060888;28;45447;-78
2022/04/30 02:26:27;;;;;;;;;36.25;34.00;;;;;;;;5054186;28;45562;-78
2022/04/30 02:28:57;;;;;;;;;38.75;32.00;;;;;;;;5060764;28;45773;-77
2022/04/30 02:31:23;;;;;;;;;36.00;34.50;;;;;;;;5053869;28;45452;-78
2022/04/30 02:33:48;;;;;;;;;45.00;35.75;;;;;;;;5073085;28;47345;-78
2022/04/30 02:36:14;;;;;;;;;40.25;34.75;;;;;;;;5053336;28;45333;-78
2022/04/30 02:38:41;;;;;;;;;42.00;34.25;;;;;;;;5060608;28;45382;-78
2022/04/30 02:41:06;;;;;;;;;56.75;43.25;;;;;;;;5053635;28;45999;-78
2022/04/30 02:43:32;;;;;;;;;42.25;36.25;;;;;;;;5056760;28;46389;-78
2022/04/30 02:45:57;;;;;;;;;47.25;38.50;;;;;;;;5056437;28;45384;-78
2022/04/30 02:48:22;;;;;;;;;52.50;39.00;;;;;;;;5059220;28;45342;-79
2022/04/30 02:50:48;;;;;;;;;47.25;40.25;;;;;;;;5056272;28;45474;-79
2022/04/30 02:53:14;;;;;;;;;49.50;41.00;;;;;;;;5060240;28;46271;-78
2022/04/30 02:55:39;;;;;;;;;36.25;31.75;;;;;;;;5056972;28;45433;-78
2022/04/30 03:00:51;;;;;;;;;44.75;33.50;;;;;;;;5054015;28;45326;-78
2022/04/30 03:03:16;;;;;;;;;39.75;33.75;;;;;;;;5069661;28;48641;-78
2022/04/30 03:05:43;;;;;;;;;41.25;33.50;;;;;;;;5053246;28;45689;-79
2022/04/30 03:08:19;;;;;;;;;32.50;30.00;;;;;;;;5056934;28;45380;-79
2022/04/30 03:10:45;;;;;;;;;38.00;33.00;;;;;;;;5054386;28;45383;-79
2022/04/30 03:13:12;;;;;;;;;44.00;36.75;;;;;;;;5059062;28;47408;-80
2022/04/30 03:15:38;;;;;;;;;46.25;35.50;;;;;;;;5057264;28;45434;-79
2022/04/30 03:21:42;;;;;;;;;33.00;29.75;;;;;;;;5054469;28;45416;-78
2022/04/30 03:23:42;;;;;;;;;46.50;38.50;;;;;;;;5051002;28;45361;-78
2022/04/30 03:26:08;;;;;;;;;38.50;34.75;;;;;;;;5052261;28;45192;-78
2022/04/30 03:28:37;;;;;;;;;51.00;39.75;;;;;;;;5060381;28;45327;-78
2022/04/30 03:31:04;;;;;;;;;53.50;41.25;;;;;;;;5053201;28;45928;-78
2022/04/30 03:33:29;;;;;;;;;58.00;42.25;;;;;;;;5053312;28;46440;-78
2022/04/30 03:35:54;;;;;;;;;48.25;39.00;;;;;;;;5053175;28;45722;-78
2022/04/30 03:38:20;;;;;;;;;39.00;35.75;;;;;;;;5062026;28;45524;-78
2022/04/30 03:40:45;;;;;;;;;41.25;32.75;;;;;;;;5058251;28;45433;-78
2022/04/30 03:43:10;;;;;;;;;47.00;37.50;;;;;;;;5061038;28;45502;-78
2022/04/30 03:45:36;;;;;;;;;46.25;36.00;;;;;;;;5052604;28;45380;-79
2022/04/30 03:48:02;;;;;;;;;53.25;41.75;;;;;;;;5052692;28;45482;-79
2022/04/30 03:50:27;;;;;;;;;46.75;38.75;;;;;;;;5056781;28;45283;-78
2022/04/30 03:52:52;;;;;;;;;43.50;35.75;;;;;;;;5059047;28;45379;-78
2022/04/30 03:55:18;;;;;;;;;60.75;44.75;;;;;;;;5057236;28;45475;-78
2022/04/30 03:57:43;;;;;;;;;51.25;41.00;;;;;;;;5059571;28;45342;-78
2022/04/30 04:00:09;;;;;;;;;55.25;43.25;;;;;;;;5057420;28;45498;-78
2022/04/30 04:02:36;;;;;;;;;51.25;41.00;;;;;;;;5051046;28;45324;-79
2022/04/30 04:05:02;;;;;;;;;54.50;38.25;;;;;;;;5054684;28;45447;-78
2022/04/30 04:07:27;;;;;;;;;48.75;34.50;;;;;;;;5056851;28;45203;-78
2022/04/30 04:09:52;;;;;;;;;51.75;38.00;;;;;;;;5055833;28;45305;-78
2022/04/30 04:12:17;;;;;;;;;35.00;27.75;;;;;;;;5053728;28;45398;-78
2022/04/30 04:17:39;;;;;;;;;53.50;41.00;;;;;;;;5056566;28;45393;-79
2022/04/30 04:20:05;;;;;;;;;67.50;48.25;;;;;;;;5055310;28;45326;-78
2022/04/30 04:22:30;;;;;;;;;55.25;44.00;;;;;;;;5057215;28;47383;-79
2022/04/30 04:27:39;;;;;;;;;67.50;50.75;;;;;;;;5058302;28;45397;-78
2022/04/30 04:30:05;;;;;;;;;56.25;42.50;;;;;;;;5054522;28;45564;-78
2022/04/30 04:32:30;;;;;;;;;69.50;52.50;;;;;;;;5056500;28;45459;-78
2022/04/30 04:34:56;;;;;;;;;62.75;46.75;;;;;;;;5054284;28;45365;-78
2022/04/30 04:37:21;;;;;;;;;43.50;37.00;;;;;;;;5057388;28;45381;-78
2022/04/30 04:39:46;;;;;;;;;40.50;33.75;;;;;;;;5056039;28;45327;-78
2022/04/30 04:42:11;;;;;;;;;47.00;37.00;;;;;;;;5055022;28;45327;-78
2022/04/30 04:44:37;;;;;;;;;34.25;33.25;;;;;;;;5056735;28;45234;-78
2022/04/30 04:47:02;;;;;;;;;35.75;34.00;;;;;;;;5054084;28;45466;-79
2022/04/30 04:49:27;;;;;;;;;48.75;35.00;;;;;;;;5056909;28;45452;-78
2022/04/30 04:51:53;;;;;;;;;48.75;37.75;;;;;;;;5056180;28;45266;-78
2022/04/30 04:54:18;;;;;;;;;33.75;33.50;;;;;;;;5058081;28;45332;-78
2022/04/30 04:56:44;;;;;;;;;39.50;34.00;;;;;;;;5056719;28;45435;-78
2022/04/30 04:59:09;;;;;;;;;46.25;35.50;;;;;;;;5058581;28;45374;-78
2022/04/30 05:01:35;;;;;;;;;45.75;36.50;;;;;;;;5048186;28;45896;-79
2022/04/30 05:04:00;;;;;;;;;45.25;38.00;;;;;;;;5060263;28;45656;-78
2022/04/30 05:06:25;;;;;;;;;44.75;36.50;;;;;;;;5053373;28;45292;-79
2022/04/30 05:08:51;;;;;;;;;58.25;44.00;;;;;;;;5061734;28;45271;-78
2022/04/30 05:11:16;;;;;;;;;44.75;37.25;;;;;;;;5055857;28;46639;-78
2022/04/30 05:13:41;;;;;;;;;52.25;41.25;;;;;;;;5061860;28;45288;-79
2022/04/30 05:16:06;;;;;;;;;60.50;46.00;;;;;;;;5052887;28;45371;-79
2022/04/30 05:18:31;;;;;;;;;53.25;41.75;;;;;;;;5061328;28;45434;-78
2022/04/30 05:20:57;;;;;;;;;51.00;38.50;;;;;;;;5055916;28;45320;-78
2022/04/30 05:23:22;;;;;;;;;52.25;39.50;;;;;;;;5061613;28;45284;-78
2022/04/30 05:25:47;;;;;;;;;48.75;40.25;;;;;;;;5055706;28;45512;-78
2022/04/30 05:28:13;;;;;;;;;58.25;46.75;;;;;;;;5060121;28;46219;-78
2022/04/30 05:30:38;;;;;;;;;47.00;35.75;;;;;;;;5054927;28;45438;-78
2022/04/30 05:33:04;;;;;;;;;49.00;35.25;;;;;;;;5060206;28;45426;-78
2022/04/30 05:35:29;;;;;;;;;39.25;33.50;;;;;;;;5057222;28;45372;-78
2022/04/30 05:37:55;;;;;;;;;44.50;36.75;;;;;;;;5062127;28;45320;-78
2022/04/30 05:40:20;;;;;;;;;45.50;38.00;;;;;;;;5055898;28;45414;-78
2022/04/30 05:42:46;;;;;;;;;47.75;39.75;;;;;;;;5056525;28;45469;-77
2022/04/30 05:45:11;;;;;;;;;35.00;32.50;;;;;;;;5058271;28;45557;-79
2022/04/30 05:47:37;;;;;;;;;39.75;34.00;;;;;;;;5061088;28;45410;-78
2022/04/30 05:50:03;;;;;;;;;44.00;37.25;;;;;;;;5054897;28;47233;-77
2022/04/30 05:52:28;;;;;;;;;43.00;36.00;;;;;;;;5061217;28;45449;-78
2022/04/30 05:54:53;;;;;;;;;41.75;35.50;;;;;;;;5059932;28;45448;-78
2022/04/30 05:57:18;;;;;;;;;37.50;34.25;;;;;;;;5060790;28;45280;-78
2022/04/30 05:59:44;;;;;;;;;40.50;34.50;;;;;;;;5059309;28;45640;-78
2022/04/30 06:02:09;;;;;;;;;37.25;32.50;;;;;;;;5053050;28;45272;-79
2022/04/30 06:04:34;;;;;;;;;44.00;34.50;;;;;;;;5059178;28;45241;-78
2022/04/30 06:06:59;;;;;;;;;42.50;37.25;;;;;;;;5059206;28;47233;-78
2022/04/30 06:09:25;;;;;;;;;42.75;36.75;;;;;;;;5059759;28;45568;-79
2022/04/30 06:11:50;;;;;;;;;43.75;34.25;;;;;;;;5056058;28;45284;-78
2022/04/30 06:14:16;;;;;;;;;35.00;33.50;;;;;;;;5060597;28;45199;-78
2022/04/30 06:16:41;;;;;;;;;39.75;33.75;;;;;;;;5056652;28;45673;-78
2022/04/30 06:19:06;;;;;;;;;33.75;30.00;;;;;;;;5060301;28;45232;-78
2022/04/30 06:21:31;;;;;;;;;39.75;32.50;;;;;;;;5054102;28;45264;-78
2022/04/30 06:23:57;;;;;;;;;31.50;26.25;;;;;;;;5060806;28;45230;-79
2022/04/30 06:26:22;;;;;;;;;40.25;34.75;;;;;;;;5052761;28;46033;-77
2022/04/30 06:28:47;;;;;;;;;39.25;32.25;;;;;;;;5059084;28;48158;-79
2022/04/30 06:31:12;;;;;;;;;25.25;25.25;;;;;;;;5052671;28;45390;-79
2022/04/30 06:33:38;;;;;;;;;35.50;31.75;;;;;;;;5055170;28;45229;-80
2022/04/30 06:36:03;;;;;;;;;37.25;34.75;;;;;;;;5053848;28;45521;-79
2022/04/30 06:38:28;;;;;;;;;37.50;31.25;;;;;;;;5060886;28;46399;-81
2022/04/30 06:40:53;;;;;;;;;31.75;29.25;;;;;;;;5052481;28;45335;-81
2022/04/30 06:43:19;;;;;;;;;42.00;33.75;;;;;;;;5056680;28;45419;-79
2022/04/30 06:45:44;;;;;;;;;31.50;28.50;;;;;;;;5051365;28;47174;-76
2022/04/30 06:48:10;;;;;;;;;34.00;30.25;;;;;;;;5051678;28;45332;-78
2022/04/30 06:50:35;;;;;;;;;33.50;32.25;;;;;;;;5056647;28;45555;-79
2022/04/30 06:58:40;;;;;;;;;33.75;29.50;;;;;;;;5057778;28;45331;-77
2022/04/30 07:03:31;;;;;;;;;36.50;29.00;;;;;;;;5059006;28;45510;-77
2022/04/30 07:06:03;;;;;;;;;33.25;29.75;;;;;;;;5057749;28;45408;-76
2022/04/30 07:08:30;;;;;;;;;33.25;31.50;;;;;;;;5059139;28;45390;-77
2022/04/30 07:10:55;;;;;;;;;32.75;27.50;;;;;;;;5084419;27;45391;-78
2022/04/30 07:13:20;;;;;;;;;37.50;31.00;;;;;;;;5049227;28;45522;-77
2022/04/30 07:15:45;;;;;;;;;33.00;29.75;;;;;;;;5049526;28;45487;-75
2022/04/30 07:18:11;;;;;;;;;31.75;30.00;;;;;;;;5058950;28;45280;-79
2022/04/30 07:20:36;;;;;;;;;28.50;25.25;;;;;;;;5057158;28;45361;-78
2022/04/30 07:23:02;;;;;;;;;28.50;24.75;;;;;;;;5059169;28;45469;-78
2022/04/30 07:25:27;;;;;;;;;40.00;30.50;;;;;;;;5056467;28;45363;-78
2022/04/30 07:27:52;;;;;;;;;32.75;29.00;;;;;;;;5054777;28;47182;-76
2022/04/30 07:30:17;;;;;;;;;29.50;27.75;;;;;;;;5055936;28;45459;-77
2022/04/30 07:32:42;;;;;;;;;30.00;26.25;;;;;;;;5058131;28;45605;-75
2022/04/30 07:35:08;;;;;;;;;31.25;26.00;;;;;;;;5055874;28;45366;-78
2022/04/30 07:37:33;;;;;;;;;35.75;28.00;;;;;;;;5058421;28;45421;-78
2022/04/30 07:39:58;;;;;;;;;31.00;27.25;;;;;;;;5056049;28;45328;-78
2022/04/30 07:42:23;;;;;;;;;32.00;25.50;;;;;;;;5058012;28;45433;-77
2022/04/30 07:44:49;;;;;;;;;30.75;28.75;;;;;;;;5056485;28;45429;-77
2022/04/30 07:47:14;;;;;;;;;34.75;28.75;;;;;;;;5057456;28;45232;-77
2022/04/30 07:49:41;;;;;;;;;31.75;26.50;;;;;;;;5056433;28;45383;-78
2022/04/30 07:52:06;;;;;;;;;26.50;25.50;;;;;;;;5057861;28;45290;-79
2022/04/30 07:54:32;;;;;;;;;33.25;26.00;;;;;;;;5057606;28;45560;-77
2022/04/30 07:56:59;;;;;;;;;36.50;30.75;;;;;;;;5056149;28;47434;-79
2022/04/30 07:59:24;;;;;;;;;28.25;25.75;;;;;;;;5057813;28;45585;-76
2022/04/30 08:01:50;;;;;;;;;32.25;28.00;;;;;;;;5057463;28;45465;-76
2022/04/30 08:04:15;;;;;;;;;29.75;28.50;;;;;;;;5058325;28;45381;-77
2022/04/30 08:06:40;;;;;;;;;27.50;25.75;;;;;;;;5076975;27;47233;-76
2022/04/30 08:09:06;;;;;;;;;28.00;23.50;;;;;;;;5058951;28;45346;-79
2022/04/30 08:11:31;;;;;;;;;27.75;24.75;;;;;;;;5052044;28;45516;-77
2022/04/30 08:13:57;;;;;;;;;27.75;23.75;;;;;;;;5058647;28;45321;-78
2022/04/30 08:16:22;;;;;;;;;23.50;22.25;;;;;;;;5051348;28;46084;-76
2022/04/30 08:18:47;;;;;;;;;28.00;27.50;;;;;;;;5057148;28;45368;-76
2022/04/30 08:21:13;;;;;;;;;28.25;27.50;;;;;;;;5054045;28;45293;-77
2022/04/30 08:23:38;;;;;;;;;29.75;26.00;;;;;;;;5056825;28;45479;-76
2022/04/30 08:26:03;;;;;;;;;28.75;24.75;;;;;;;;5052295;28;45418;-76
2022/04/30 08:28:29;;;;;;;;;29.00;24.25;;;;;;;;5057620;28;45407;-77
2022/04/30 08:30:54;;;;;;;;;21.75;18.25;;;;;;;;5053371;28;45336;-76
2022/04/30 08:33:19;;;;;;;;;25.75;22.50;;;;;;;;5057614;28;45253;-76
2022/04/30 08:35:45;;;;;;;;;23.75;23.50;;;;;;;;5051401;28;48045;-76
2022/04/30 08:38:10;;;;;;;;;21.75;21.75;;;;;;;;5056095;28;45322;-76
2022/04/30 08:40:36;;;;;;;;;24.75;21.00;;;;;;;;5056982;28;45584;-74
2022/04/30 08:43:08;;;;;;;;;32.00;27.50;;;;;;;;5058940;28;45475;-76
2022/04/30 08:45:35;;;;;;;;;20.00;19.67;;;;;;;;5057980;28;45435;-75
2022/04/30 08:48:01;;;;;;;;;26.33;23.67;;;;;;;;5059606;28;45322;-76
2022/04/30 08:50:29;;;;;;;;;27.33;24.33;;;;;;;;5057389;28;45233;-75
2022/04/30 08:52:54;;;;;;;;;22.33;20.67;;;;;;;;5055297;28;45241;-77
2022/04/30 08:55:19;;;;;;;;;23.67;21.00;;;;;;;;5059495;28;46362;-77
2022/04/30 08:57:45;;;;;;;;;20.00;19.00;;;;;;;;5061839;28;45340;-76
2022/04/30 09:00:10;;;;;;;;;18.00;18.00;;;;;;;;5059687;28;45474;-77
2022/04/30 09:02:36;;;;;;;;;20.67;17.33;;;;;;;;5053893;28;45434;-76
2022/04/30 09:05:01;;;;;;;;;19.00;19.00;;;;;;;;5058334;28;45445;-76
2022/04/30 09:07:27;;;;;;;;;16.00;15.00;;;;;;;;5058458;28;45367;-76
2022/04/30 09:09:56;;;;;;;;;19.67;17.00;;;;;;;;5056935;28;45339;-77
2022/04/30 09:12:22;;;;;;;;;17.67;17.67;;;;;;;;5057811;28;45303;-76
2022/04/30 09:14:47;;;;;;;;;15.67;15.67;;;;;;;;5058204;28;46103;-76
2022/04/30 09:17:13;;;;;;;;;16.67;14.33;;;;;;;;5068613;28;45247;-76
2022/04/30 09:19:45;;;;;;;;;11.33;10.67;;;;;;;;5057800;28;45252;-76
2022/04/30 09:22:10;;;;;;;;;18.67;17.33;;;;;;;;5057084;28;45376;-77
2022/04/30 09:24:48;;;;;;;;;14.67;14.67;;;;;;;;5060408;28;46119;-76
2022/04/30 09:27:14;;;;;;;;;15.33;14.33;;;;;;;;5059011;28;45332;-77
2022/04/30 09:29:39;;;;;;;;;17.67;15.67;;;;;;;;5059429;28;45442;-76
2022/04/30 09:32:05;;;;;;;;;13.33;12.33;;;;;;;;5056579;28;45363;-77
2022/04/30 09:37:49;;;;;;;;;16.00;15.33;;;;;;;;5053360;28;45275;-76
2022/04/30 09:40:14;;;;;;;;;16.67;15.00;;;;;;;;5056447;28;45453;-76
2022/04/30 09:42:42;;;;;;;;;17.00;14.67;;;;;;;;5057587;28;45688;-76
2022/04/30 09:45:08;;;;;;;;;38.33;33.00;;;;;;;;5057027;28;45330;-77
2022/04/30 09:47:34;;;;;;;;;14.00;11.67;;;;;;;;5047190;28;45229;-76
2022/04/30 09:55:32;;;;;;;;;19.67;19.33;;;;;;;;5058423;28;45724;-76
2022/04/30 09:57:59;;;;;;;;;20.00;15.67;;;;;;;;5060809;28;45370;-76
2022/04/30 10:00:24;;;;;;;;;19.67;18.33;;;;;;;;5059005;28;45458;-75
2022/04/30 10:02:56;;;;;;;;;14.00;13.00;;;;;;;;5053248;28;45180;-76
2022/04/30 10:05:21;;;;;;;;;24.33;23.67;;;;;;;;5054293;28;48483;-76
2022/04/30 10:07:48;;;;;;;;;22.67;20.67;;;;;;;;5055018;28;46113;-76
2022/04/30 10:10:21;;;;;;;;;11.33;11.33;;;;;;;;5046186;28;45518;-76
2022/04/30 10:12:54;;;;;;;;;13.67;12.00;;;;;;;;5060122;28;45462;-76
2022/04/30 10:15:39;;;;;;;;;12.67;11.00;;;;;;;;5055454;28;45529;-76
2022/04/30 10:18:07;;;;;;;;;13.00;11.00;;;;;;;;5058798;28;45232;-76
2022/04/30 10:20:34;;;;;;;;;11.00;8.67;;;;;;;;5053049;28;45420;-76
2022/04/30 10:22:59;;;;;;;;;12.67;12.00;;;;;;;;5058818;28;45473;-77
2022/04/30 10:25:41;;;;;;;;;12.50;12.00;;;;;;;;5053143;28;46687;-75
2022/04/30 10:28:15;;;;;;;;;14.67;12.67;;;;;;;;5054286;28;45419;-76
2022/04/30 10:30:42;;;;;;;;;12.33;10.67;;;;;;;;5053107;28;45340;-78
2022/04/30 10:33:08;;;;;;;;;13.00;13.00;;;;;;;;5060641;28;45418;-77
2022/04/30 10:35:38;;;;;;;;;17.33;15.00;;;;;;;;5052279;28;48410;-73
2022/04/30 10:38:10;;;;;;;;;14.33;13.00;;;;;;;;5056360;28;45340;-74
2022/04/30 10:40:39;;;;;;;;;15.00;13.00;;;;;;;;5055683;28;45380;-74
2022/04/30 10:43:13;;;;;;;;;16.33;15.00;;;;;;;;5057312;28;45265;-73
2022/04/30 10:45:38;;;;;;;;;17.33;15.00;;;;;;;;5057709;28;46292;-72
2022/04/30 10:48:04;;;;;;;;;15.00;12.00;;;;;;;;5058232;28;45453;-73
2022/04/30 10:50:29;;;;;;;;;34.33;31.00;;;;;;;;5057213;28;45410;-74
2022/04/30 10:52:55;;;;;;;;;9.00;8.00;;;;;;;;5060230;28;45236;-75
2022/04/30 10:55:21;;;;;;;;;11.00;11.00;;;;;;;;5057576;28;46099;-73
2022/04/30 10:57:46;;;;;;;;;14.00;12.33;;;;;;;;5059777;28;45344;-80
2022/04/30 11:00:12;;;;;;;;;10.00;10.00;;;;;;;;5056801;28;45500;-78
2022/04/30 11:02:37;;;;;;;;;11.33;11.00;;;;;;;;5060396;28;46443;-83
2022/04/30 11:05:03;;;;;;;;;10.00;9.00;;;;;;;;5057300;28;46883;-83
2022/04/30 11:07:29;;;;;;;;;7.33;7.33;;;;;;;;5058978;28;45379;-82
2022/04/30 11:09:55;;;;;;;;;7.00;7.00;;;;;;;;5058777;28;45304;-83
2022/04/30 11:12:21;;;;;;;;;9.33;7.00;;;;;;;;5056029;28;45475;-81
2022/04/30 11:14:46;;;;;;;;;7.25;7.25;;;;;;;;5058640;28;46294;-85
2022/04/30 11:17:12;;;;;;;;;9.00;9.00;;;;;;;;5058480;28;45345;-78
2022/04/30 11:19:41;;;;;;;;;11.00;8.00;;;;;;;;5056795;28;45597;-82
2022/04/30 11:22:09;;;;;;;;;10.67;10.00;;;;;;;;5058067;28;45533;-82
2022/04/30 11:24:37;;;;;;;;;7.00;6.00;;;;;;;;5058311;28;46103;-81
2022/04/30 11:27:04;;;;;;;;;7.00;7.00;;;;;;;;5055020;28;45231;-81
2022/04/30 11:29:30;;;;;;;;;7.00;5.00;;;;;;;;5058766;28;45304;-77
2022/04/30 11:31:56;;;;;;;;;5.50;5.50;;;;;;;;5053756;28;45400;-78
2022/04/30 11:34:21;;;;;;;;;4.00;4.00;;;;;;;;5057768;28;46644;-79
2022/04/30 11:36:47;;;;;;;;;6.50;6.50;;;;;;;;5051924;28;45495;-79
2022/04/30 11:39:13;;;;;;;;;9.25;7.00;;;;;;;;5058150;28;45322;-82
2022/04/30 11:41:39;;;;;;;;;5.00;4.75;;;;;;;;5050461;28;46343;-79
2022/04/30 11:44:05;;;;;;;;;5.00;5.00;;;;;;;;5057953;28;45236;-75
2022/04/30 11:46:30;;;;;;;;;4.00;4.00;;;;;;;;5056317;28;45249;-76
2022/04/30 11:48:56;;;;;;;;;5.25;4.00;;;;;;;;5056533;28;45418;-79
2022/04/30 11:51:21;;;;;;;;;4.75;4.75;;;;;;;;5057644;28;45390;-80
2022/04/30 11:53:46;;;;;;;;;6.25;4.75;;;;;;;;5058099;28;47197;-79
2022/04/30 11:56:12;;;;;;;;;3.50;3.00;;;;;;;;5057764;28;45276;-77
2022/04/30 11:58:41;;;;;;;;;5.75;4.00;;;;;;;;5060886;28;45469;-80
2022/04/30 12:01:17;;;;;;;;;7.00;7.00;;;;;;;;5050940;28;46070;-80
2022/04/30 12:03:42;;;;;;;;;6.25;4.50;;;;;;;;5057835;28;46240;-81
2022/04/30 12:06:08;;;;;;;;;5.75;4.00;;;;;;;;5053259;28;45422;-80
2022/04/30 12:08:33;;;;;;;;;6.25;6.25;;;;;;;;5057653;28;45365;-80
2022/04/30 12:10:59;;;;;;;;;3.75;3.75;;;;;;;;5048304;28;46005;-84
2022/04/30 12:13:24;;;;;;;;;8.00;7.00;;;;;;;;5058690;28;45499;-85
2022/04/30 12:15:49;;;;;;;;;5.50;3.00;;;;;;;;5054331;28;45400;-82
2022/04/30 12:26:40;;;;;;;;;3.25;3.25;;;;;;;;5054965;28;45812;-81
2022/04/30 12:29:21;;;;;;;;;18.50;16.00;;;;;;;;5050169;28;45860;-81
2022/04/30 12:31:47;;;;;;;;;5.00;4.25;;;;;;;;5053716;28;45578;-82
2022/04/30 12:34:25;;;;;;;;;7.75;5.00;;;;;;;;5059550;28;46353;-82
2022/04/30 12:36:58;;;;;;;;;3.75;3.75;;;;;;;;5053343;28;45568;-80
2022/04/30 12:39:26;;;;;;;;;4.00;4.00;;;;;;;;5043528;28;45706;-81
2022/04/30 12:41:51;;;;;;;;;3.75;3.25;;;;;;;;5052918;28;46354;-78
2022/04/30 12:44:17;;;;;;;;;4.00;4.00;;;;;;;;5059090;28;46065;-80
2022/04/30 12:46:46;;;;;;;;;2.25;2.25;;;;;;;;5053243;28;45623;-77
2022/04/30 12:49:14;;;;;;;;;5.00;4.75;;;;;;;;5059474;28;45419;-80
2022/04/30 12:51:40;;;;;;;;;1.50;1.25;;;;;;;;5056111;28;45554;-80
2022/04/30 12:54:06;;;;;;;;;3.00;3.00;;;;;;;;5059094;28;45278;-80
2022/04/30 12:56:32;;;;;;;;;4.00;3.25;;;;;;;;5052573;28;45394;-76
2022/04/30 12:58:57;;;;;;;;;4.50;3.25;;;;;;;;5058461;28;45489;-73
2022/04/30 13:01:22;;;;;;;;;4.25;3.75;;;;;;;;5048543;28;45339;-72
2022/04/30 13:03:48;;;;;;;;;5.75;4.50;;;;;;;;5057735;28;45253;-74
2022/04/30 13:06:13;;;;;;;;;5.50;3.50;;;;;;;;5047752;28;45309;-74
2022/04/30 13:14:07;;;;;;;;;6.75;5.00;;;;;;;;5057907;28;45400;-73
2022/04/30 13:16:32;;;;;;;;;5.50;4.00;;;;;;;;5051384;28;45268;-72
2022/04/30 13:18:58;;;;;;;;;3.50;3.50;;;;;;;;5056914;28;45316;-73
2022/04/30 13:21:24;;;;;;;;;5.25;4.00;;;;;;;;5050948;28;45476;-74
2022/04/30 13:23:49;;;;;;;;;4.75;4.00;;;;;;;;5057775;28;46218;-72
2022/04/30 13:26:14;;;;;;;;;4.50;4.50;;;;;;;;5057269;28;45323;-72
2022/04/30 13:28:39;;;;;;;;;5.50;5.50;;;;;;;;5061347;28;45296;-72
2022/04/30 13:31:05;;;;;;;;;6.25;6.25;;;;;;;;5054516;28;45226;-72
2022/04/30 13:33:30;;;;;;;;;5.00;5.00;;;;;;;;5061042;28;44970;-76
2022/04/30 13:35:55;;;;;;;;;4.00;3.00;;;;;;;;5059377;28;45382;-78
2022/04/30 13:38:22;;;;;;;;;4.00;4.00;;;;;;;;5060149;28;45304;-77
2022/04/30 13:40:48;;;;;;;;;6.00;3.75;;;;;;;;5055952;28;46018;-80
2022/04/30 13:43:15;;;;;;;;;2.50;2.00;;;;;;;;5058874;28;47007;-79
2022/04/30 13:45:40;;;;;;;;;5.50;5.50;;;;;;;;5055877;28;45616;-79
2022/04/30 13:48:06;;;;;;;;;51.67;43.00;;;;;;;;5058382;28;45446;-80
2022/04/30 13:50:32;;;;;;;;;4.50;4.50;;;;;;;;5058721;28;45221;-77
2022/04/30 13:52:57;;;;;;;;;11.00;11.00;;;;;;;;5060723;28;46174;-80
2022/04/30 13:55:23;;;;;;;;;3.50;3.50;;;;;;;;5059334;28;45399;-81
2022/04/30 13:57:48;;;;;;;;;7.00;4.50;;;;;;;;5061488;28;45327;-80
2022/04/30 14:00:20;;;;;;;;;4.25;4.25;;;;;;;;5052518;28;46401;-80
2022/04/30 14:02:46;;;;;;;;;5.25;3.75;;;;;;;;5058451;28;45236;-85
2022/04/30 14:05:11;;;;;;;;;5.75;4.00;;;;;;;;5056977;28;45428;-82
2022/04/30 14:07:36;;;;;;;;;5.50;4.75;;;;;;;;5059785;28;45286;-81
2022/04/30 14:10:02;;;;;;;;;5.75;5.75;;;;;;;;5060571;28;45261;-82
2022/04/30 14:12:27;;;;;;;;;4.75;4.75;;;;;;;;5058444;28;46335;-83
2022/04/30 14:14:58;;;;;;;;;7.75;5.00;;;;;;;;5059661;28;45475;-79
2022/04/30 14:20:12;;;;;;;;;6.50;5.00;;;;;;;;5060824;28;45288;-81
2022/04/30 14:22:38;;;;;;;;;5.67;5.67;;;;;;;;5059826;28;46456;-83
2022/04/30 14:25:03;;;;;;;;;4.00;4.00;;;;;;;;5083253;27;45471;-80
2022/04/30 14:27:28;;;;;;;;;5.00;5.00;;;;;;;;5060420;28;45243;-80
2022/04/30 14:29:54;;;;;;;;;6.67;6.67;;;;;;;;5058138;28;46262;-83
2022/04/30 14:32:19;;;;;;;;;4.00;4.00;;;;;;;;5059474;28;47113;-81
2022/04/30 14:34:45;;;;;;;;;4.25;4.25;;;;;;;;5060593;28;45315;-83
2022/04/30 14:37:10;;;;;;;;;5.25;5.25;;;;;;;;5056361;28;44800;-81
2022/04/30 14:39:35;;;;;;;;;5.00;5.00;;;;;;;;5059920;28;45596;-83
2022/04/30 14:42:01;;;;;;;;;3.75;3.75;;;;;;;;5053266;28;45973;-81
2022/04/30 14:44:26;;;;;;;;;6.00;6.00;;;;;;;;5057633;28;45745;-79
2022/04/30 14:46:52;;;;;;;;;8.33;8.33;;;;;;;;5052471;28;45394;-81
2022/04/30 14:49:17;;;;;;;;;4.67;3.00;;;;;;;;5061587;28;45386;-80
2022/04/30 14:51:43;;;;;;;;;7.00;6.33;;;;;;;;5053546;28;46586;-81
2022/04/30 14:54:08;;;;;;;;;7.33;7.33;;;;;;;;5063085;28;45413;-81
2022/04/30 14:56:33;;;;;;;;;6.33;6.33;;;;;;;;5051242;28;45471;-80
2022/04/30 14:58:59;;;;;;;;;8.67;8.67;;;;;;;;5064753;28;45723;-79
2022/04/30 15:01:24;;;;;;;;;8.00;6.00;;;;;;;;5062017;28;45224;-80
2022/04/30 15:03:49;;;;;;;;;8.67;8.00;;;;;;;;5062913;28;45373;-80
2022/04/30 15:06:14;;;;;;;;;8.67;7.00;;;;;;;;5051943;28;45421;-82
2022/04/30 15:08:39;;;;;;;;;7.67;7.67;;;;;;;;5059689;28;45386;-79